This is the latest recevied weather packets stored in our database for station/object OE6CUD-6. If no packets are shown the sender has not sent any weather packets the latest 10 day(s).
| Time | Temp. | Humidity | Pressure | Rain* | Wind** | Luminosity | Snow |
|---|---|---|---|---|---|---|---|
| 1776942661 | 20.56° C | 35% | 1020.3 hPa | 0 mm | - | 656 W/m² | - |
| 1776938290 | 17.22° C | 44% | 1021.1 hPa | 0 mm | - | 819 W/m² | - |
| 1776935707 | 15.56° C | 44% | 1021.4 hPa | 0 mm | - | 269 W/m² | - |
| 1776935104 | 15° C | 46% | 1021.5 hPa | 0 mm | - | 450 W/m² | - |
| 1776934804 | 15.56° C | 45% | 1021.5 hPa | 0 mm | - | 338 W/m² | - |
| 1776929848 | 13.33° C | 59% | 1022 hPa | 0 mm | - | 434 W/m² | - |
| 1776928033 | 12.22° C | 64% | 1022.1 hPa | 0 mm | - | 44 W/m² | - |
| 1776923050 | 5.56° C | 83% | 1021.3 hPa | 0 mm | - | 30 W/m² | - |
| 1776919411 | 1.67° C | 97% | 1020.7 hPa | 0 mm | - | 16 W/m² | - |
| 1776919277 | 1.11° C | 97% | 1020.8 hPa | 0 mm | - | 16 W/m² | - |
| 1776913810 | 1.11° C | 96% | 1020.4 hPa | 0 mm | - | 0 W/m² | - |
| 1776912424 | 1.11° C | 96% | 1020.6 hPa | 0 mm | - | 0 W/m² | - |
| 1776911824 | 1.11° C | 96% | 1020.7 hPa | 0 mm | - | 0 W/m² | - |
| 1776910024 | 1.11° C | 96% | 1020.8 hPa | 0 mm | - | 0 W/m² | - |
| 1776909423 | 1.11° C | 95% | 1020.9 hPa | 0 mm | - | 0 W/m² | - |
| 1776905789 | 2.22° C | 93% | 1021 hPa | 0 mm | - | 0 W/m² | - |
| 1776905491 | 2.22° C | 93% | 1021.1 hPa | 0 mm | - | 0 W/m² | - |
| 1776898554 | 3.33° C | 87% | 1020.9 hPa | 0 mm | - | 0 W/m² | - |
| 1776898084 | 3.33° C | 86% | 1020.9 hPa | 0 mm | - | 0 W/m² | - |
| 1776897181 | 3.89° C | 86% | 1020.9 hPa | 0 mm | - | 0 W/m² | - |
| 1776894192 | 4.44° C | 81% | 1020.6 hPa | 0 mm | - | 0 W/m² | - |
| 1776894184 | 4.44° C | 82% | 1020.6 hPa | 0 mm | - | 0 W/m² | - |
* Rain latest hour (hover to see other rain measurements)
** Current wind speed in m/s (hover to see current wind gust speed)